createdAt,value
2019-05-28T00:01:28.266Z,26.10
2019-05-28T00:04:19.872Z,26.10
2019-05-28T00:06:52.529Z,26.20
2019-05-28T00:09:24.859Z,26.20
2019-05-28T00:11:57.328Z,26.30
2019-05-28T00:14:29.363Z,26.30
2019-05-28T00:17:01.471Z,26.40
2019-05-28T00:19:34.071Z,26.40
2019-05-28T00:22:06.212Z,26.50
2019-05-28T00:24:38.457Z,26.50
2019-05-28T00:27:10.555Z,26.60
2019-05-28T00:29:42.554Z,26.60
2019-05-28T00:32:14.917Z,26.70
2019-05-28T00:34:47.672Z,26.80
2019-05-28T00:37:19.943Z,26.80
2019-05-28T00:39:51.921Z,26.90
2019-05-28T00:42:23.926Z,26.90
2019-05-28T00:44:56.476Z,27.00
2019-05-28T00:47:28.664Z,27.10
2019-05-28T00:50:01.263Z,27.10
2019-05-28T00:52:33.309Z,27.20
2019-05-28T00:55:06.886Z,27.30
2019-05-28T00:57:40.561Z,27.30
2019-05-28T01:00:13.740Z,27.40
2019-05-28T01:02:45.815Z,27.40
2019-05-28T01:05:19.583Z,27.50
2019-05-28T01:07:51.579Z,27.60
2019-05-28T01:10:23.596Z,27.60
2019-05-28T01:12:56.064Z,27.70
2019-05-28T01:15:28.109Z,27.70
2019-05-28T01:18:00.397Z,27.70
2019-05-28T01:20:32.510Z,27.80
2019-05-28T01:23:04.598Z,27.80
2019-05-28T01:25:38.944Z,27.90
2019-05-28T01:28:11.224Z,27.90
2019-05-28T01:30:54.917Z,28.00
2019-05-28T01:33:17.307Z,28.00
2019-05-28T01:35:50.610Z,28.00
2019-05-28T01:38:23.278Z,28.10
2019-05-28T01:40:55.835Z,28.20
2019-05-28T01:43:47.891Z,28.20
2019-05-28T01:46:40.180Z,28.30
2019-05-28T01:49:12.439Z,28.30
2019-05-28T01:51:44.572Z,28.40
2019-05-28T01:54:19.799Z,28.40
2019-05-28T01:57:11.272Z,28.40
2019-05-28T01:59:43.272Z,28.50
2019-05-28T02:02:15.372Z,28.50
2019-05-28T02:04:47.550Z,28.60
2019-05-28T02:07:19.543Z,28.60
2019-05-28T02:09:52.186Z,28.60
2019-05-28T02:12:24.880Z,28.70
2019-05-28T02:14:57.290Z,28.80
2019-05-28T02:17:29.402Z,28.80
2019-05-28T02:20:01.549Z,28.90
2019-05-28T02:22:33.833Z,28.90
2019-05-28T02:25:08.635Z,29.00
2019-05-28T02:27:59.900Z,29.00
2019-05-28T02:30:32.649Z,29.00
2019-05-28T02:33:04.671Z,29.10
2019-05-28T02:35:36.947Z,29.10
2019-05-28T02:38:09.531Z,29.20
2019-05-28T02:40:41.643Z,29.20
2019-05-28T02:43:14.026Z,29.30
2019-05-28T02:45:46.444Z,29.30
2019-05-28T02:48:18.919Z,29.30
2019-05-28T02:51:10.708Z,29.40
2019-05-28T02:54:02.613Z,29.40
2019-05-28T02:56:36.394Z,29.40
2019-05-28T02:59:11.768Z,29.30
2019-05-28T03:01:45.804Z,29.30
2019-05-28T03:04:20.098Z,29.30
2019-05-28T03:06:54.972Z,29.30
2019-05-28T03:09:33.020Z,29.30
2019-05-28T03:12:05.275Z,29.30
2019-05-28T03:14:37.751Z,29.30
2019-05-28T03:17:11.390Z,29.40
2019-05-28T03:19:45.204Z,29.50
2019-05-28T03:22:19.122Z,29.60
2019-05-28T03:24:53.164Z,29.70
2019-05-28T03:27:25.244Z,29.80
2019-05-28T03:29:57.474Z,29.90
2019-05-28T03:32:29.961Z,29.90
2019-05-28T03:35:02.554Z,30.00
2019-05-28T03:37:37.846Z,30.10
2019-05-28T03:40:13.706Z,30.10
2019-05-28T03:42:45.616Z,30.20
2019-05-28T03:45:18.338Z,30.30
2019-05-28T03:47:51.285Z,30.40
2019-05-28T03:50:23.886Z,30.60
2019-05-28T03:52:56.460Z,30.60
2019-05-28T03:55:30.206Z,30.70
2019-05-28T03:58:03.340Z,30.70
2019-05-28T04:00:35.399Z,30.70
2019-05-28T04:03:07.725Z,30.70
2019-05-28T04:05:40.308Z,30.80
2019-05-28T04:08:15.031Z,30.80
2019-05-28T04:10:47.462Z,30.80
2019-05-28T04:13:19.520Z,30.80
2019-05-28T04:15:51.637Z,30.80
2019-05-28T04:18:23.897Z,30.90
2019-05-28T04:20:56.109Z,31.00
2019-05-28T04:23:28.289Z,31.10
2019-05-28T04:26:01.041Z,31.20
2019-05-28T04:28:33.080Z,31.20
2019-05-28T04:31:05.062Z,31.20
2019-05-28T04:33:37.285Z,31.20
2019-05-28T04:36:09.308Z,31.20
2019-05-28T04:38:41.349Z,31.20
2019-05-28T04:41:13.733Z,31.20
2019-05-28T04:43:45.917Z,31.30
2019-05-28T04:46:17.987Z,31.30
2019-05-28T04:48:50.228Z,31.40
2019-05-28T04:51:22.376Z,31.50
2019-05-28T04:53:54.339Z,31.50
2019-05-28T04:56:26.814Z,31.40
2019-05-28T04:59:08.751Z,31.40
2019-05-28T05:01:42.377Z,31.40
2019-05-28T05:04:14.735Z,31.50
2019-05-28T05:06:46.782Z,31.60
2019-05-28T05:09:19.463Z,31.60
2019-05-28T05:11:51.456Z,31.70
2019-05-28T05:14:23.640Z,31.70
2019-05-28T05:16:56.087Z,31.70
2019-05-28T05:19:28.061Z,31.70
2019-05-28T05:22:00.068Z,31.80
2019-05-28T05:24:32.398Z,31.80
2019-05-28T05:27:04.473Z,31.80
2019-05-28T05:29:36.534Z,31.80
2019-05-28T05:32:11.913Z,31.90
2019-05-28T05:34:44.196Z,32.10
2019-05-28T05:37:16.708Z,32.30
2019-05-28T05:39:49.398Z,32.40
2019-05-28T05:42:21.681Z,32.50
2019-05-28T05:44:55.032Z,32.50
2019-05-28T05:47:26.985Z,32.50
2019-05-28T05:50:07.190Z,32.50
2019-05-28T05:52:39.352Z,32.50
2019-05-28T05:55:12.341Z,32.40
2019-05-28T05:57:44.646Z,32.40
2019-05-28T06:00:18.428Z,32.30
2019-05-28T06:02:51.259Z,32.30
2019-05-28T06:05:23.245Z,32.40
2019-05-28T06:07:55.502Z,32.40
2019-05-28T06:10:27.904Z,32.40
2019-05-28T06:13:02.887Z,32.40
2019-05-28T06:15:37.049Z,32.40
2019-05-28T06:18:09.265Z,32.40
2019-05-28T06:20:41.462Z,32.40
2019-05-28T06:23:14.094Z,32.30
2019-05-28T06:25:46.314Z,32.30
2019-05-28T06:28:18.731Z,32.20
2019-05-28T06:30:51.018Z,32.30
2019-05-28T06:33:23.048Z,32.20
2019-05-28T06:35:55.270Z,32.20
2019-05-28T06:38:28.157Z,32.20
2019-05-28T06:41:00.121Z,32.20
2019-05-28T06:43:35.259Z,32.10
2019-05-28T06:46:26.552Z,31.90
2019-05-28T06:48:58.860Z,31.80
2019-05-28T06:51:31.009Z,31.60
2019-05-28T06:54:02.957Z,31.30
2019-05-28T06:56:35.222Z,31.10
2019-05-28T06:59:07.539Z,30.90
2019-05-28T07:01:39.578Z,30.60
2019-05-28T07:04:14.424Z,30.50
2019-05-28T07:06:45.905Z,30.30
2019-05-28T07:09:18.231Z,30.20
2019-05-28T07:11:50.210Z,30.10
2019-05-28T07:14:22.277Z,30.00
2019-05-28T07:16:54.439Z,29.90
2019-05-28T07:19:26.595Z,29.80
2019-05-28T07:21:58.515Z,29.70
2019-05-28T07:24:30.778Z,29.60
2019-05-28T07:27:02.973Z,29.50
2019-05-28T07:29:35.227Z,29.40
2019-05-28T07:32:07.478Z,29.40
2019-05-28T07:34:39.581Z,29.30
2019-05-28T07:37:11.709Z,29.10
2019-05-28T07:39:44.078Z,29.00
2019-05-28T07:42:31.825Z,28.90
2019-05-28T07:44:49.788Z,28.70
2019-05-28T07:47:21.829Z,28.50
2019-05-28T07:49:54.986Z,28.30
2019-05-28T07:52:27.053Z,28.20
2019-05-28T07:54:59.430Z,28.00
2019-05-28T07:57:31.688Z,27.80
2019-05-28T08:00:05.679Z,27.60
2019-05-28T08:02:37.931Z,27.50
2019-05-28T08:05:18.968Z,27.40
2019-05-28T08:07:51.102Z,27.30
2019-05-28T08:10:23.606Z,27.30
2019-05-28T08:13:17.149Z,27.30
2019-05-28T08:15:49.362Z,27.20
2019-05-28T08:18:21.871Z,27.20
2019-05-28T08:20:54.224Z,27.10
2019-05-28T08:23:26.162Z,27.10
2019-05-28T08:26:01.637Z,27.10
2019-05-28T08:28:32.193Z,27.10
2019-05-28T08:31:14.577Z,27.20
2019-05-28T08:33:38.610Z,27.20
2019-05-28T08:36:10.843Z,27.20
2019-05-28T08:38:44.073Z,27.10
2019-05-28T08:41:16.311Z,26.90
2019-05-28T08:43:48.715Z,26.80
2019-05-28T08:46:21.223Z,26.80
2019-05-28T08:48:53.723Z,26.70
2019-05-28T08:51:27.557Z,26.70
2019-05-28T08:54:00.477Z,26.70
2019-05-28T08:56:41.673Z,26.70
2019-05-28T08:59:14.190Z,26.70
2019-05-28T09:01:46.542Z,26.70
2019-05-28T09:04:18.557Z,26.70
2019-05-28T09:06:51.208Z,26.60
2019-05-28T09:09:23.419Z,26.60
2019-05-28T09:11:55.694Z,26.50
2019-05-28T09:14:28.283Z,26.50
2019-05-28T09:17:01.539Z,26.40
2019-05-28T09:19:34.062Z,26.40
2019-05-28T09:22:05.974Z,26.40
2019-05-28T09:24:38.005Z,26.30
2019-05-28T09:27:10.686Z,26.30
2019-05-28T09:29:42.930Z,26.30
2019-05-28T09:32:15.628Z,26.30
2019-05-28T09:34:47.830Z,26.40
2019-05-28T09:37:20.165Z,26.40
2019-05-28T09:39:52.281Z,26.40
2019-05-28T09:42:24.734Z,26.40
2019-05-28T09:44:56.751Z,26.30
2019-05-28T09:47:37.991Z,26.30
2019-05-28T09:50:29.443Z,26.20
2019-05-28T09:52:54.316Z,26.20
2019-05-28T09:55:21.631Z,26.10
2019-05-28T09:57:54.096Z,26.10
2019-05-28T10:00:28.422Z,26.10
2019-05-28T10:03:00.467Z,26.10
2019-05-28T10:05:32.484Z,26.10
2019-05-28T10:08:04.966Z,26.10
2019-05-28T10:10:37.506Z,26.10
2019-05-28T10:13:09.703Z,26.10
2019-05-28T10:15:42.045Z,26.10
2019-05-28T10:18:15.157Z,26.20
2019-05-28T10:20:47.482Z,26.20
2019-05-28T10:23:19.305Z,26.20
2019-05-28T10:25:51.498Z,26.20
2019-05-28T10:28:23.499Z,26.20
2019-05-28T10:31:14.645Z,26.20
2019-05-28T10:33:47.089Z,26.20
2019-05-28T10:36:34.389Z,26.10
2019-05-28T10:38:53.080Z,26.20
2019-05-28T10:41:25.219Z,26.10
2019-05-28T10:43:58.536Z,26.10
2019-05-28T10:46:30.939Z,26.00
2019-05-28T10:49:03.036Z,26.00
2019-05-28T10:51:34.938Z,26.00
2019-05-28T10:54:07.868Z,26.00
2019-05-28T10:56:39.811Z,26.00
2019-05-28T10:59:11.861Z,26.00
2019-05-28T11:01:44.343Z,26.00
2019-05-28T11:04:16.390Z,26.00
2019-05-28T11:06:51.927Z,26.00
2019-05-28T11:09:26.385Z,26.00
2019-05-28T11:11:58.458Z,26.00
2019-05-28T11:14:30.716Z,26.00
2019-05-28T11:17:03.203Z,26.00
2019-05-28T11:19:35.301Z,26.00
2019-05-28T11:22:07.353Z,26.00
2019-05-28T11:24:39.699Z,25.90
2019-05-28T11:27:11.949Z,25.90
2019-05-28T11:29:44.051Z,25.90
2019-05-28T11:32:16.426Z,25.90
2019-05-28T11:34:48.451Z,25.90
2019-05-28T11:37:20.654Z,25.90
2019-05-28T11:39:52.864Z,25.90
2019-05-28T11:42:25.410Z,25.90
2019-05-28T11:45:18.758Z,25.90
2019-05-28T11:47:51.647Z,25.80
2019-05-28T11:50:24.854Z,25.80
2019-05-28T11:52:56.828Z,25.80
2019-05-28T11:55:29.578Z,25.80
2019-05-28T11:58:01.723Z,25.70
2019-05-28T12:00:34.259Z,25.70
2019-05-28T12:03:06.830Z,25.70
2019-05-28T12:05:38.812Z,25.70
2019-05-28T12:08:10.757Z,25.70
2019-05-28T12:10:42.979Z,25.70
2019-05-28T12:13:15.155Z,25.70
2019-05-28T12:15:47.101Z,25.70
2019-05-28T12:18:19.481Z,25.70
2019-05-28T12:20:51.404Z,25.70
2019-05-28T12:23:23.412Z,25.70
2019-05-28T12:25:56.017Z,25.70
2019-05-28T12:28:47.068Z,25.70
2019-05-28T12:31:19.469Z,25.70
2019-05-28T12:33:51.591Z,25.70
2019-05-28T12:36:23.725Z,25.70
2019-05-28T12:38:56.066Z,25.70
2019-05-28T12:41:28.135Z,25.70
2019-05-28T12:44:00.384Z,25.70
2019-05-28T12:46:32.587Z,25.70
2019-05-28T12:49:05.738Z,25.70
2019-05-28T12:51:37.904Z,25.60
2019-05-28T12:54:10.305Z,25.70
2019-05-28T12:56:42.325Z,25.60
2019-05-28T12:59:16.490Z,25.60
2019-05-28T13:01:48.577Z,25.60
2019-05-28T13:04:20.424Z,25.50
2019-05-28T13:06:52.483Z,25.50
2019-05-28T13:09:24.890Z,25.50
2019-05-28T13:11:56.812Z,25.50
2019-05-28T13:14:28.978Z,25.50
2019-05-28T13:17:01.650Z,25.50
2019-05-28T13:19:33.524Z,25.50
2019-05-28T13:22:07.617Z,25.50
2019-05-28T13:24:39.552Z,25.50
2019-05-28T13:27:17.976Z,25.50
2019-05-28T13:29:46.089Z,25.50
2019-05-28T13:32:18.260Z,25.50
2019-05-28T13:34:50.745Z,25.50
2019-05-28T13:37:23.268Z,25.50
2019-05-28T13:39:55.512Z,25.50
2019-05-28T13:42:28.063Z,25.50
2019-05-28T13:45:01.093Z,25.50
2019-05-28T13:47:34.323Z,25.50
2019-05-28T13:50:10.528Z,25.50
2019-05-28T13:52:42.925Z,25.50
2019-05-28T13:55:15.647Z,25.50
2019-05-28T13:57:50.780Z,25.50
2019-05-28T14:00:24.377Z,25.50
2019-05-28T14:02:57.302Z,25.50
2019-05-28T14:05:29.331Z,25.50
2019-05-28T14:08:01.481Z,25.50
2019-05-28T14:10:33.892Z,25.50
2019-05-28T14:13:06.089Z,25.50
2019-05-28T14:15:38.197Z,25.40
2019-05-28T14:18:10.852Z,25.40
2019-05-28T14:20:43.036Z,25.40
2019-05-28T14:23:14.994Z,25.40
2019-05-28T14:25:47.977Z,25.40
2019-05-28T14:28:25.684Z,25.40
2019-05-28T14:31:00.319Z,25.40
2019-05-28T14:33:31.805Z,25.40
2019-05-28T14:36:06.959Z,25.40
2019-05-28T14:38:38.746Z,25.40
2019-05-28T14:41:11.184Z,25.40
2019-05-28T14:43:43.837Z,25.40
2019-05-28T14:46:16.003Z,25.40
2019-05-28T14:48:48.223Z,25.30
2019-05-28T14:51:21.392Z,25.30
2019-05-28T14:53:53.746Z,25.30
2019-05-28T14:56:25.860Z,25.30
2019-05-28T14:58:58.427Z,25.30
2019-05-28T15:01:30.568Z,25.30
2019-05-28T15:04:02.556Z,25.30
2019-05-28T15:06:35.030Z,25.20
2019-05-28T15:09:28.271Z,25.20
2019-05-28T15:12:03.689Z,25.20
2019-05-28T15:14:35.038Z,25.30
2019-05-28T15:17:07.482Z,25.30
2019-05-28T15:19:39.792Z,25.30
2019-05-28T15:22:12.377Z,25.30
2019-05-28T15:24:44.687Z,25.30
2019-05-28T15:27:16.610Z,25.30
2019-05-28T15:29:49.178Z,25.30
2019-05-28T15:32:21.214Z,25.30
2019-05-28T15:34:53.888Z,25.30
2019-05-28T15:37:26.159Z,25.30
2019-05-28T15:39:58.450Z,25.30
2019-05-28T15:42:30.919Z,25.20
2019-05-28T15:45:03.211Z,25.20
2019-05-28T15:47:35.549Z,25.30
2019-05-28T15:50:10.247Z,25.20
2019-05-28T15:52:42.615Z,25.20
2019-05-28T15:55:15.069Z,25.30
2019-05-28T15:58:06.295Z,25.20
2019-05-28T16:00:38.428Z,25.20
2019-05-28T16:03:10.876Z,25.20
2019-05-28T16:05:43.147Z,25.20
2019-05-28T16:08:15.177Z,25.20
2019-05-28T16:10:47.508Z,25.20
2019-05-28T16:13:20.706Z,25.30
2019-05-28T16:15:56.008Z,25.30
2019-05-28T16:18:28.363Z,25.30
2019-05-28T16:21:00.237Z,25.30
2019-05-28T16:23:32.556Z,25.30
2019-05-28T16:26:04.785Z,25.30
2019-05-28T16:28:36.877Z,25.30
2019-05-28T16:31:12.865Z,25.30
2019-05-28T16:33:42.694Z,25.30
2019-05-28T16:36:14.927Z,25.30
2019-05-28T16:38:47.239Z,25.30
2019-05-28T16:41:19.825Z,25.30
2019-05-28T16:43:52.073Z,25.30
2019-05-28T16:46:24.351Z,25.30
2019-05-28T16:48:56.619Z,25.30
2019-05-28T16:51:28.813Z,25.30
2019-05-28T16:54:18.041Z,25.30
2019-05-28T16:56:35.326Z,25.30
2019-05-28T16:59:07.959Z,25.30
2019-05-28T17:01:41.397Z,25.30
2019-05-28T17:04:13.835Z,25.30
2019-05-28T17:06:46.243Z,25.30
2019-05-28T17:09:18.378Z,25.30
2019-05-28T17:11:50.753Z,25.30
2019-05-28T17:14:26.924Z,25.30
2019-05-28T17:17:02.863Z,25.30
2019-05-28T17:19:32.765Z,25.30
2019-05-28T17:22:04.746Z,25.30
2019-05-28T17:24:36.875Z,25.40
2019-05-28T17:27:11.787Z,25.40
2019-05-28T17:29:43.980Z,25.40
2019-05-28T17:32:17.932Z,25.40
2019-05-28T17:34:50.084Z,25.40
2019-05-28T17:37:22.220Z,25.40
2019-05-28T17:39:54.238Z,25.40
2019-05-28T17:42:26.214Z,25.40
2019-05-28T17:44:58.324Z,25.40
2019-05-28T17:47:30.487Z,25.40
2019-05-28T17:50:02.529Z,25.40
2019-05-28T17:52:34.661Z,25.40
2019-05-28T17:55:08.196Z,25.40
2019-05-28T17:57:40.244Z,25.40
2019-05-28T18:00:13.293Z,25.40
2019-05-28T18:02:48.578Z,25.30
2019-05-28T18:05:20.486Z,25.30
2019-05-28T18:07:52.672Z,25.30
2019-05-28T18:10:25.387Z,25.30
2019-05-28T18:12:57.546Z,25.30
2019-05-28T18:15:29.593Z,25.30
2019-05-28T18:18:01.864Z,25.20
2019-05-28T18:20:34.145Z,25.30
2019-05-28T18:23:06.303Z,25.30
2019-05-28T18:25:38.403Z,25.20
2019-05-28T18:28:10.732Z,25.20
2019-05-28T18:30:42.828Z,25.20
2019-05-28T18:33:14.963Z,25.20
2019-05-28T18:35:46.939Z,25.20
2019-05-28T18:38:18.836Z,25.20
2019-05-28T18:40:50.890Z,25.20
2019-05-28T18:43:23.466Z,25.20
2019-05-28T18:45:55.495Z,25.20
2019-05-28T18:48:27.228Z,25.20
2019-05-28T18:50:59.483Z,25.30
2019-05-28T18:53:31.526Z,25.30
2019-05-28T18:56:16.530Z,25.30
2019-05-28T18:58:37.779Z,25.30
2019-05-28T19:01:09.934Z,25.40
2019-05-28T19:03:42.684Z,25.40
2019-05-28T19:06:14.674Z,25.40
2019-05-28T19:08:46.572Z,25.40
2019-05-28T19:11:19.186Z,25.40
2019-05-28T19:13:51.186Z,25.40
2019-05-28T19:16:23.335Z,25.40
2019-05-28T19:18:55.542Z,25.40
2019-05-28T19:21:27.566Z,25.40
2019-05-28T19:23:59.720Z,25.40
2019-05-28T19:26:31.778Z,25.30
2019-05-28T19:29:04.784Z,25.30
2019-05-28T19:31:37.070Z,25.30
2019-05-28T19:34:09.301Z,25.30
2019-05-28T19:36:41.773Z,25.30
2019-05-28T19:39:14.374Z,25.30
2019-05-28T19:41:54.017Z,25.30
2019-05-28T19:44:20.271Z,25.30
2019-05-28T19:46:52.402Z,25.30
2019-05-28T19:49:24.904Z,25.30
2019-05-28T19:51:57.429Z,25.30
2019-05-28T19:54:29.367Z,25.30
2019-05-28T19:57:01.502Z,25.30
2019-05-28T19:59:34.154Z,25.30
2019-05-28T20:02:07.375Z,25.30
2019-05-28T20:04:52.007Z,25.40
2019-05-28T20:07:24.241Z,25.40
2019-05-28T20:09:56.360Z,25.40
2019-05-28T20:12:28.847Z,25.40
2019-05-28T20:15:00.718Z,25.40
2019-05-28T20:17:32.990Z,25.50
2019-05-28T20:20:06.941Z,25.50
2019-05-28T20:22:38.872Z,25.50
2019-05-28T20:25:12.375Z,25.50
2019-05-28T20:27:45.751Z,25.50
2019-05-28T20:30:21.273Z,25.40
2019-05-28T20:32:55.073Z,25.40
2019-05-28T20:35:30.853Z,25.40
2019-05-28T20:38:05.795Z,25.40
2019-05-28T20:40:35.329Z,25.40
2019-05-28T20:43:08.237Z,25.30
2019-05-28T20:45:41.511Z,25.40
2019-05-28T20:48:13.613Z,25.30
2019-05-28T20:50:45.748Z,25.30
2019-05-28T20:53:17.881Z,25.30
2019-05-28T20:55:50.381Z,25.30
2019-05-28T20:58:37.418Z,25.30
2019-05-28T21:00:57.782Z,25.20
2019-05-28T21:03:29.974Z,25.20
2019-05-28T21:06:03.024Z,25.30
2019-05-28T21:08:35.265Z,25.20
2019-05-28T21:11:07.371Z,25.30
2019-05-28T21:13:39.532Z,25.30
2019-05-28T21:16:11.760Z,25.30
2019-05-28T21:18:43.773Z,25.20
2019-05-28T21:21:15.870Z,25.30
2019-05-28T21:23:51.646Z,25.20
2019-05-28T21:26:24.736Z,25.20
2019-05-28T21:28:58.462Z,25.30
2019-05-28T21:31:31.131Z,25.30
2019-05-28T21:34:03.409Z,25.30
2019-05-28T21:36:35.788Z,25.30
2019-05-28T21:39:09.875Z,25.30
2019-05-28T21:41:42.389Z,25.30
2019-05-28T21:44:14.497Z,25.30
2019-05-28T21:46:46.587Z,25.20
2019-05-28T21:49:19.037Z,25.20
2019-05-28T21:51:51.083Z,25.20
2019-05-28T21:54:23.134Z,25.30
2019-05-28T21:56:55.327Z,25.20
2019-05-28T21:59:27.558Z,25.20
2019-05-28T22:02:00.101Z,25.20
2019-05-28T22:04:33.670Z,25.20
2019-05-28T22:07:07.855Z,25.30
2019-05-28T22:09:40.237Z,25.20
2019-05-28T22:12:13.134Z,25.20
2019-05-28T22:14:45.246Z,25.30
2019-05-28T22:17:17.576Z,25.30
2019-05-28T22:19:49.492Z,25.30
2019-05-28T22:22:21.661Z,25.30
2019-05-28T22:24:53.727Z,25.30
2019-05-28T22:27:25.873Z,25.30
2019-05-28T22:29:58.565Z,25.30
2019-05-28T22:32:30.910Z,25.30
2019-05-28T22:35:04.012Z,25.30
2019-05-28T22:37:36.109Z,25.30
2019-05-28T22:40:10.947Z,25.30
2019-05-28T22:42:43.415Z,25.30
2019-05-28T22:45:15.788Z,25.30
2019-05-28T22:47:48.051Z,25.30
2019-05-28T22:50:23.263Z,25.30
2019-05-28T22:52:55.658Z,25.30
2019-05-28T22:55:27.710Z,25.20
2019-05-28T22:58:00.249Z,25.20
2019-05-28T23:00:32.302Z,25.30
2019-05-28T23:03:05.065Z,25.30
2019-05-28T23:05:37.506Z,25.30
2019-05-28T23:08:10.135Z,25.30
2019-05-28T23:11:03.026Z,25.30
2019-05-28T23:13:46.502Z,25.30
2019-05-28T23:16:08.762Z,25.40
2019-05-28T23:18:40.745Z,25.40
2019-05-28T23:21:12.990Z,25.40
2019-05-28T23:23:45.387Z,25.40
2019-05-28T23:26:17.404Z,25.40
2019-05-28T23:28:49.651Z,25.40
2019-05-28T23:31:22.132Z,25.50
2019-05-28T23:33:54.370Z,25.50
2019-05-28T23:36:26.281Z,25.60
2019-05-28T23:38:58.583Z,25.60
2019-05-28T23:41:31.069Z,25.60
2019-05-28T23:44:03.854Z,25.60
2019-05-28T23:46:36.137Z,25.60
2019-05-28T23:49:08.368Z,25.60
2019-05-28T23:51:40.404Z,25.70
2019-05-28T23:54:13.885Z,25.70
2019-05-28T23:56:46.031Z,25.70
2019-05-28T23:59:18.349Z,25.70
